Hlavní strana
METAR-TAF:

METAR-TAF

Letiště :

Båtsfjord, Norsko

zeměpisná šířka: 70-38N, zeměpisná délka: 029-44E, výška: 10 m

Aktuální stav počasí

Zpráva byla vytvořena před 3 hodinami a 15 minutami, v 20:50 UTC
Východní vítr 28 kt
Teplota 0°C
Vlhkost vzduchu 74%
Tlak 990 hPa
Viditelnost 10 km a více
Skoro jasno ve výšce 1800 ft
Polojasno ve výšce 4000 ft
(slabý) , sníh

METAR: ENBS 212050Z 08028KT 9999 -DRSN FEW018 SCT040 BKN51 00/M04 Q0990

Čas: 02:05 (00:05 UTC)


TAF: chybějící

Stav a předpovědi počasí z více než 4 000 letišť (zprávy METAR a TAF).

Červené a žluté tečky na mapě představují dostupné meteorologické stanice.

Když kurzor umístíte na tečku, zobrazí se název stanice.

Pak kliknutím zobrazíte stav a předpověď počasí.

Chcete-li změnit mapu, kliknutím na zelené tlačítko se znaménkem +mapu přiblížíte, kliknutím na zelené tlačítko se znaménkem – mapu oddálíte a kliknutím na zelené šipky přejdete na sousední mapy.


METAR-TAF: